Map

Track Data

SID SEASON NUMBER BASIN SUBBASIN NAME ISO_TIME NATURE LAT LON WMO_WIND WMO_PRES WMO_AGENCY TRACK_TYPE DIST2LAND LANDFALL IFLAG USA_AGENCY USA_ATCF_ID USA_LAT USA_LON USA_RECORD USA_STATUS USA_WIND USA_PRES USA_SSHS USA_R34_NE USA_R34_SE USA_R34_SW USA_R34_NW USA_R50_NE USA_R50_SE USA_R50_SW USA_R50_NW USA_R64_NE USA_R64_SE USA_R64_SW USA_R64_NW USA_POCI USA_ROCI USA_RMW USA_EYE TOKYO_LAT TOKYO_LON TOKYO_GRADE TOKYO_WIND TOKYO_PRES TOKYO_R50_DIR TOKYO_R50_LONG TOKYO_R50_SHORT TOKYO_R30_DIR TOKYO_R30_LONG TOKYO_R30_SHORT TOKYO_LAND CMA_LAT CMA_LON CMA_CAT CMA_WIND CMA_PRES HKO_LAT HKO_LON HKO_CAT HKO_WIND HKO_PRES NEWDELHI_LAT NEWDELHI_LON NEWDELHI_GRADE NEWDELHI_WIND NEWDELHI_PRES NEWDELHI_CI NEWDELHI_DP NEWDELHI_POCI REUNION_LAT REUNION_LON REUNION_TYPE REUNION_WIND REUNION_PRES REUNION_TNUM REUNION_CI REUNION_RMW REUNION_R34_NE REUNION_R34_SE REUNION_R34_SW REUNION_R34_NW REUNION_R50_NE REUNION_R50_SE REUNION_R50_SW REUNION_R50_NW REUNION_R64_NE REUNION_R64_SE REUNION_R64_SW REUNION_R64_NW BOM_LAT BOM_LON BOM_TYPE BOM_WIND BOM_PRES BOM_TNUM BOM_CI BOM_RMW BOM_R34_NE BOM_R34_SE BOM_R34_SW BOM_R34_NW BOM_R50_NE BOM_R50_SE BOM_R50_SW BOM_R50_NW BOM_R64_NE BOM_R64_SE BOM_R64_SW BOM_R64_NW BOM_ROCI BOM_POCI BOM_EYE BOM_POS_METHOD BOM_PRES_METHOD NADI_LAT NADI_LON NADI_CAT NADI_WIND NADI_PRES WELLINGTON_LAT WELLINGTON_LON WELLINGTON_WIND WELLINGTON_PRES DS824_LAT DS824_LON DS824_STAGE DS824_WIND DS824_PRES TD9636_LAT TD9636_LON TD9636_STAGE TD9636_WIND TD9636_PRES TD9635_LAT TD9635_LON TD9635_WIND TD9635_PRES TD9635_ROCI NEUMANN_LAT NEUMANN_LON NEUMANN_CLASS NEUMANN_WIND NEUMANN_PRES MLC_LAT MLC_LON MLC_CLASS MLC_WIND MLC_PRES USA_GUST BOM_GUST BOM_GUST_PER REUNION_GUST REUNION_GUST_PER USA_SEAHGT USA_SEARAD_NE USA_SEARAD_SE USA_SEARAD_SW USA_SEARAD_NW STORM_SPEED STORM_DIR
1921312N08126 1921 60 WP MM NOT_NAMED 1921-11-07 22:00:00 NR 8.30000 126.000 main 0 0 __________O___ -1 8.30000 126.000 2 12 270
1921312N08126 1921 60 WP MM NOT_NAMED 1921-11-08 00:00:00 NR 8.29897 125.610 main 0 0 __________P___ -1 8.29897 125.610 2 12 270
1921312N08126 1921 60 WP MM NOT_NAMED 1921-11-08 03:00:00 NR 8.29752 125.008 main 0 0 __________P___ -1 8.29752 125.008 2 12 270
1921312N08126 1921 60 WP MM NOT_NAMED 1921-11-08 06:00:00 NR 8.29716 124.365 main 0 0 __________P___ -1 8.29716 124.365 2 13 270
1921312N08126 1921 60 WP MM NOT_NAMED 1921-11-08 09:00:00 NR 8.29885 123.656 main 0 0 __________P___ -1 8.29885 123.656 2 14 270
1921312N08126 1921 60 WP MM NOT_NAMED 1921-11-08 10:00:00 NR 8.30000 123.400 main 0 0 __________O___ -1 8.30000 123.400 2 16 270
1921312N08126 1921 60 WP MM NOT_NAMED 1921-11-08 12:00:00 NR 8.30309 122.859 main 0 11 __________P___ -1 8.30309 122.859 2 17 270
1921312N08126 1921 60 WP MM NOT_NAMED 1921-11-08 15:00:00 NR 8.30762 122.009 main 40 40 __________P___ -1 8.30762 122.009 2 17 270
1921312N08126 1921 60 WP MM NOT_NAMED 1921-11-08 18:00:00 NR 8.30883 121.173 main 115 125 __________P___ -1 8.30883 121.173 2 16 270
1921312N08126 1921 60 WP MM NOT_NAMED 1921-11-08 21:00:00 NR 8.30362 120.420 main 199 199 __________P___ -1 8.30362 120.420 2 14 269
1921312N08126 1921 60 WP MM NOT_NAMED 1921-11-08 22:00:00 NR 8.30000 120.200 main 219 196 __________O___ -1 8.30000 120.200 2 11 268
1921312N08126 1921 60 WP MM NOT_NAMED 1921-11-09 00:00:00 NR 8.28561 119.855 main 196 156 __________P___ -1 8.28561 119.855 2 9 267
1921312N08126 1921 60 WP MM NOT_NAMED 1921-11-09 03:00:00 NR 8.25832 119.439 main 156 142 __________P___ -1 8.25832 119.439 2 8 266
1921312N08126 1921 60 WP MM NOT_NAMED 1921-11-09 06:00:00 NR 8.22974 119.086 main 142 109 __________P___ -1 8.22974 119.086 2 7 266
1921312N08126 1921 60 WP MM NOT_NAMED 1921-11-09 09:00:00 NR 8.20589 118.730 main 109 102 __________P___ -1 8.20589 118.730 2 7 266
1921312N08126 1921 60 WP MM NOT_NAMED 1921-11-09 10:00:00 NR 8.20000 118.600 main 102 85 __________O___ -1 8.20000 118.600 2 9 269
1921312N08126 1921 60 WP MM NOT_NAMED 1921-11-09 12:00:00 NR 8.19437 118.271 main 85 40 __________P___ -1 8.19437 118.271 2 10 269
1921312N08126 1921 60 WP MM NOT_NAMED 1921-11-09 15:00:00 NR 8.19219 117.745 main 40 11 __________P___ -1 8.19219 117.745 2 11 270
1921312N08126 1921 60 WP MM NOT_NAMED 1921-11-09 18:00:00 NR 8.19470 117.203 main 11 11 __________P___ -1 8.19470 117.203 2 11 270
1921312N08126 1921 60 WP MM NOT_NAMED 1921-11-09 21:00:00 NR 8.19880 116.671 main 56 67 __________P___ -1 8.19880 116.671 2 10 270
1921312N08126 1921 60 WP MM NOT_NAMED 1921-11-09 22:00:00 NR 8.20000 116.500 main 77 77 __________O___ -1 8.20000 116.500 2 9 270
1921312N08126 1921 60 WP MM NOT_NAMED 1921-11-10 00:00:00 NR 8.20230 116.196 main 110 110 __________P___ -1 8.20230 116.196 2 9 270
1921312N08126 1921 60 WP MM NOT_NAMED 1921-11-10 03:00:00 NR 8.20601 115.759 main 154 165 __________P___ -1 8.20601 115.759 2 9 270
1921312N08126 1921 60 WP MM NOT_NAMED 1921-11-10 06:00:00 NR 8.20734 115.323 main 209 209 __________P___ -1 8.20734 115.323 2 9 270
1921312N08126 1921 60 WP MM NOT_NAMED 1921-11-10 09:00:00 NR 8.20317 114.863 main 246 255 __________P___ -1 8.20317 114.863 2 9 269
1921312N08126 1921 60 WP MM NOT_NAMED 1921-11-10 10:00:00 NR 8.20000 114.700 main 264 264 __________O___ -1 8.20000 114.700 2 10 269
1921312N08126 1921 60 WP MM NOT_NAMED 1921-11-10 12:00:00 NR 8.19053 114.356 main 292 302 __________P___ -1 8.19053 114.356 2 11 268
1921312N08126 1921 60 WP MM NOT_NAMED 1921-11-10 15:00:00 NR 8.16951 113.801 main 346 346 __________P___ -1 8.16951 113.801 2 11 268
1921312N08126 1921 60 WP MM NOT_NAMED 1921-11-10 18:00:00 NR 8.14223 113.212 main 386 386 __________P___ -1 8.14223 113.212 2 12 267
1921312N08126 1921 60 WP MM NOT_NAMED 1921-11-10 21:00:00 NR 8.11093 112.604 main 421 421 __________P___ -1 8.11093 112.604 2 12 267
1921312N08126 1921 60 WP MM NOT_NAMED 1921-11-10 22:00:00 NR 8.10000 112.400 main 430 __________O___ -1 8.10000 112.400 2 12 267

Digital Typhoon Data and Search

About IBTrACS Database

This database is a web-friendly format of International Best Track Archive for Climate Stewardship (IBTrACS), a global best track data archive curated by NOAA dating back to 1842.

Updated: 2021-10-08